Time;durP1;ratioP1;P1;durP2;ratioP2;P2;SDS_P1;SDS_P2;PMS_P1;PMS_P2;Temp;Humidity;BMP_temperature;BMP_pressure;BME280_temperature;BME280_humidity;BME280_pressure;Samples;Min_cycle;Max_cycle;Signal;HPM_P1;HPM_P2
2021/12/02 00:01:12;;;;;;;7.20;5.70;;;;;;;9.80;48.04;98582.70;1770125;80;21018;-64
2021/12/02 00:03:39;;;;;;;7.80;5.50;;;;;;;9.79;48.02;98577.92;1772813;80;21089;-66
2021/12/02 00:06:12;;;;;;;7.20;5.55;;;;;;;9.80;48.00;98569.45;1753329;80;20992;-64
2021/12/02 00:08:39;;;;;;;7.30;5.58;;;;;;;9.80;48.00;98570.77;1765160;80;21049;-65
2021/12/02 00:11:06;;;;;;;7.60;5.50;;;;;;;9.80;47.98;98565.47;1777721;80;21809;-64
2021/12/02 00:13:57;;;;;;;6.90;5.37;;;;;;;9.80;47.96;98566.80;1765528;80;20998;-64
2021/12/02 00:16:20;;;;;;;6.30;5.15;;;;;;;9.80;47.93;98573.42;1748853;80;21620;-64
2021/12/02 00:21:21;;;;;;;6.80;5.22;;;;;;;9.79;47.89;98560.67;1778575;80;21053;-64
2021/12/02 00:24:01;;;;;;;6.80;5.47;;;;;;;9.80;47.89;98557.51;1750181;80;21062;-65
2021/12/02 00:26:28;;;;;;;8.35;5.35;;;;;;;9.78;47.86;98559.02;1770950;80;21547;-63
2021/12/02 00:28:57;;;;;;;8.80;5.37;;;;;;;9.78;47.85;98572.28;1765044;80;21997;-64
2021/12/02 00:31:31;;;;;;;6.47;5.03;;;;;;;9.77;47.85;98566.68;1771723;79;21011;-63
2021/12/02 00:34:01;;;;;;;7.62;5.40;;;;;;;9.78;47.82;98564.84;1763592;80;21128;-65
2021/12/02 00:36:31;;;;;;;6.90;5.37;;;;;;;9.78;47.83;98564.33;1770268;80;21188;-64
2021/12/02 00:38:59;;;;;;;6.95;4.97;;;;;;;9.78;47.79;98555.56;1778821;80;21100;-65
2021/12/02 00:41:27;;;;;;;7.35;5.25;;;;;;;9.78;47.77;98547.08;1777048;79;21542;-65
2021/12/02 00:43:56;;;;;;;5.95;4.67;;;;;;;9.78;47.76;98540.97;1763617;80;21520;-63
2021/12/02 00:46:25;;;;;;;6.17;4.78;;;;;;;9.79;47.74;98538.61;1785279;80;21061;-64
2021/12/02 00:48:51;;;;;;;6.90;5.22;;;;;;;9.78;47.71;98529.03;1784526;80;21274;-64
2021/12/02 00:51:19;;;;;;;6.12;4.70;;;;;;;9.77;47.71;98537.50;1780638;80;21120;-64
2021/12/02 00:53:51;;;;;;;6.78;4.75;;;;;;;9.78;47.70;98531.69;1780369;80;21486;-63
2021/12/02 00:56:18;;;;;;;6.37;5.20;;;;;;;9.79;47.67;98528.01;1772864;80;21081;-65
2021/12/02 00:58:48;;;;;;;6.00;4.60;;;;;;;9.78;47.64;98514.45;1766749;80;21022;-64
2021/12/02 01:01:16;;;;;;;6.03;4.67;;;;;;;9.79;47.63;98514.74;1780382;80;21037;-65
2021/12/02 01:03:43;;;;;;;5.80;4.12;;;;;;;9.78;47.62;98521.89;1773454;80;21513;-64
2021/12/02 01:06:10;;;;;;;6.92;5.33;;;;;;;9.80;47.59;98499.16;1781294;80;21011;-64
2021/12/02 01:08:37;;;;;;;5.45;4.50;;;;;;;9.80;47.58;98501.81;1769334;80;21650;-64
2021/12/02 01:11:05;;;;;;;5.55;4.40;;;;;;;9.71;47.57;98486.53;1778819;80;21076;-63
2021/12/02 01:13:32;;;;;;;6.33;4.78;;;;;;;9.80;47.54;98493.85;1785191;79;21183;-64
2021/12/02 01:15:59;;;;;;;5.62;4.60;;;;;;;9.80;47.56;98485.89;1782142;80;21501;-64
2021/12/02 01:18:25;;;;;;;6.10;4.20;;;;;;;9.79;47.56;98475.80;1780171;80;20994;-65
2021/12/02 01:20:52;;;;;;;6.45;4.45;;;;;;;9.79;47.55;98476.28;1772094;80;21053;-65
2021/12/02 01:23:22;;;;;;;6.28;4.55;;;;;;;9.79;47.56;98470.50;1774819;80;21528;-64
2021/12/02 01:25:55;;;;;;;5.00;4.50;;;;;;;9.80;47.53;98472.63;1778945;80;21817;-65
2021/12/02 01:28:23;;;;;;;5.40;4.45;;;;;;;9.80;47.56;98473.96;1765754;80;20998;-65
2021/12/02 01:30:52;;;;;;;5.45;4.67;;;;;;;9.79;47.54;98464.35;1785735;80;21549;-64
2021/12/02 01:33:21;;;;;;;5.35;4.62;;;;;;;9.80;47.56;98471.31;1768049;80;21035;-64
2021/12/02 01:35:59;;;;;;;5.58;4.20;;;;;;;9.80;47.54;98468.14;1776370;80;20989;-64
2021/12/02 01:38:27;;;;;;;4.58;3.72;;;;;;;9.79;47.54;98465.20;1759200;80;21160;-64
2021/12/02 01:40:55;;;;;;;4.95;4.53;;;;;;;9.80;47.54;98469.47;1767804;80;21616;-64
2021/12/02 01:43:24;;;;;;;5.37;4.67;;;;;;;9.79;47.54;98459.05;1774267;80;21047;-63
2021/12/02 01:45:50;;;;;;;5.70;4.53;;;;;;;9.79;47.54;98455.06;1778775;80;21025;-64
2021/12/02 01:48:25;;;;;;;5.40;4.22;;;;;;;9.79;47.54;98448.44;1779268;80;21588;-64
2021/12/02 01:51:04;;;;;;;4.37;3.98;;;;;;;9.79;47.54;98457.23;1768807;80;21148;-64
2021/12/02 01:53:34;;;;;;;5.35;4.35;;;;;;;9.79;47.56;98452.41;1777420;80;21142;-64
2021/12/02 01:56:13;;;;;;;5.33;4.28;;;;;;;9.80;47.55;98451.41;1774316;80;21010;-63
2021/12/02 01:58:47;;;;;;;6.03;4.28;;;;;;;9.78;47.57;98446.30;1778435;80;21202;-65
2021/12/02 02:01:26;;;;;;;5.25;4.55;;;;;;;9.78;47.56;98440.19;1776253;80;21063;-64
2021/12/02 02:03:53;;;;;;;5.12;4.35;;;;;;;9.78;47.56;98434.88;1769597;80;21771;-63
2021/12/02 02:06:32;;;;;;;4.90;4.40;;;;;;;9.79;47.55;98445.30;1762790;81;21026;-63
2021/12/02 02:08:59;;;;;;;5.53;4.33;;;;;;;9.78;47.57;98430.91;1780088;80;21034;-63
2021/12/02 02:11:29;;;;;;;4.80;4.30;;;;;;;9.78;47.58;98430.91;1781395;79;21143;-63
2021/12/02 02:13:56;;;;;;;5.05;4.50;;;;;;;9.78;47.59;98425.08;1782960;79;21065;-62
2021/12/02 02:16:23;;;;;;;4.70;4.15;;;;;;;9.78;47.57;98418.45;1785890;79;21744;-63
2021/12/02 02:18:52;;;;;;;5.20;4.30;;;;;;;9.78;47.56;98425.59;1773179;80;21051;-63
2021/12/02 02:21:21;;;;;;;5.53;4.30;;;;;;;9.78;47.57;98419.78;1794911;80;21583;-63
2021/12/02 02:23:59;;;;;;;4.78;4.15;;;;;;;9.79;47.56;98423.24;1794593;79;21006;-63
2021/12/02 02:26:30;;;;;;;5.47;3.90;;;;;;;9.79;47.55;98432.52;1778289;79;21010;-63
2021/12/02 02:28:56;;;;;;;4.72;4.20;;;;;;;9.79;47.55;98420.59;1792851;78;21273;-64
2021/12/02 02:31:25;;;;;;;4.40;3.92;;;;;;;9.79;47.53;98433.84;1774781;78;21042;-63
2021/12/02 02:33:54;;;;;;;5.10;4.25;;;;;;;9.80;47.55;98434.17;1764890;80;21017;-63
2021/12/02 02:36:24;;;;;;;5.12;4.20;;;;;;;9.79;47.53;98433.36;1762871;80;21046;-62
2021/12/02 02:38:57;;;;;;;4.67;4.12;;;;;;;9.80;47.53;98428.88;1781978;80;21025;-63
2021/12/02 02:41:32;;;;;;;5.22;4.10;;;;;;;9.81;47.51;98442.42;1762750;80;21154;-65
2021/12/02 02:43:59;;;;;;;5.05;4.35;;;;;;;9.81;47.50;98429.17;1779211;80;21126;-64
2021/12/02 02:46:37;;;;;;;5.05;4.55;;;;;;;9.81;47.50;98423.37;1773623;80;21123;-64
2021/12/02 02:49:06;;;;;;;5.28;4.50;;;;;;;9.82;47.50;98421.53;1775772;80;21550;-64
2021/12/02 02:51:32;;;;;;;4.92;4.40;;;;;;;9.80;47.48;98412.44;1777996;80;21035;-64
2021/12/02 02:54:04;;;;;;;4.80;4.10;;;;;;;9.80;47.50;98413.77;1774308;80;21909;-63
2021/12/02 02:56:30;;;;;;;6.30;5.35;;;;;;;9.81;47.49;98410.60;1771127;80;21038;-64
2021/12/02 02:59:09;;;;;;;4.92;4.42;;;;;;;9.82;47.47;98410.93;1760139;80;21123;-64
2021/12/02 03:01:38;;;;;;;5.30;4.30;;;;;;;9.81;47.45;98402.16;1769860;80;21009;-64
2021/12/02 03:09:19;;;;;;;5.00;4.42;;;;;;;9.81;47.45;98392.87;1766973;80;21543;-62
2021/12/02 03:11:50;;;;;;;5.75;4.62;;;;;;;9.82;47.45;98395.82;1760837;80;21026;-63
2021/12/02 03:14:20;;;;;;;5.35;4.35;;;;;;;9.82;47.44;98385.73;1751553;80;21046;-64
2021/12/02 03:16:44;;;;;;;4.72;4.20;;;;;;;9.82;47.47;98385.73;1768347;80;21009;-63
2021/12/02 03:19:24;;;;;;;4.72;4.03;;;;;;;9.81;47.49;98386.73;1777187;80;21124;-64
2021/12/02 03:21:52;;;;;;;5.25;4.75;;;;;;;9.81;47.50;98390.70;1774811;80;21081;-64
2021/12/02 03:24:18;;;;;;;4.95;4.40;;;;;;;9.82;47.47;98377.77;1770223;80;21106;-64
2021/12/02 03:26:44;;;;;;;5.22;4.28;;;;;;;9.81;47.49;98370.33;1772482;80;21077;-63
2021/12/02 03:29:11;;;;;;;4.53;4.08;;;;;;;9.83;47.48;98386.02;1773063;80;21045;-63
2021/12/02 03:31:37;;;;;;;6.35;4.80;;;;;;;9.82;47.45;98367.97;1752055;80;21172;-64
2021/12/02 03:34:05;;;;;;;4.92;4.30;;;;;;;9.83;47.45;98366.97;1774210;80;21021;-64
2021/12/02 03:36:32;;;;;;;5.42;4.28;;;;;;;9.84;47.44;98382.38;1777659;80;20990;-64
2021/12/02 03:38:58;;;;;;;6.05;4.78;;;;;;;9.84;47.44;98357.17;1784117;79;21608;-64
2021/12/02 03:41:25;;;;;;;5.70;4.92;;;;;;;9.84;47.43;98369.11;1773277;80;21010;-64
2021/12/02 03:43:52;;;;;;;5.00;4.45;;;;;;;9.84;47.43;98355.84;1771352;80;23222;-64
2021/12/02 03:46:22;;;;;;;4.97;4.45;;;;;;;9.84;47.42;98363.80;1773485;80;21034;-65
2021/12/02 03:48:49;;;;;;;5.47;4.40;;;;;;;9.84;47.42;98344.72;1779653;80;21027;-64
2021/12/02 03:51:15;;;;;;;5.12;4.33;;;;;;;9.85;47.41;98338.94;1760195;80;21509;-63
2021/12/02 03:53:42;;;;;;;5.15;4.53;;;;;;;9.84;47.38;98322.17;1765387;80;21018;-65
2021/12/02 03:56:08;;;;;;;5.08;4.37;;;;;;;9.86;47.37;98326.48;1775664;80;21068;-64
2021/12/02 03:58:37;;;;;;;5.95;4.92;;;;;;;9.86;47.37;98327.80;1763400;80;21069;-64
2021/12/02 04:01:05;;;;;;;5.15;4.47;;;;;;;9.86;47.37;98335.77;1767506;80;21018;-63
2021/12/02 04:03:32;;;;;;;5.87;4.75;;;;;;;9.86;47.36;98332.59;1749651;80;21521;-64
2021/12/02 04:05:59;;;;;;;5.08;4.58;;;;;;;9.86;47.35;98311.89;1770854;80;21064;-65
2021/12/02 04:08:40;;;;;;;5.62;4.75;;;;;;;9.86;47.34;98311.38;1773053;80;21827;-63
2021/12/02 04:11:13;;;;;;;5.20;4.53;;;;;;;9.86;47.34;98310.05;1783653;79;21048;-65
2021/12/02 04:13:31;;;;;;;5.20;4.60;;;;;;;9.87;47.34;98317.00;1744796;80;21548;-63
2021/12/02 04:16:00;;;;;;;5.37;4.80;;;;;;;9.87;47.33;98312.19;1748224;81;21639;-64
2021/12/02 04:18:23;;;;;;;5.10;4.58;;;;;;;9.86;47.33;98305.27;1781346;79;21475;-64
2021/12/02 04:20:50;;;;;;;5.62;4.37;;;;;;;9.85;47.33;98293.84;1776276;79;21100;-64
2021/12/02 04:23:17;;;;;;;5.28;4.78;;;;;;;9.87;47.34;98301.58;1770884;80;21081;-64
2021/12/02 04:25:44;;;;;;;5.87;4.58;;;;;;;9.86;47.33;98306.07;1769659;80;21048;-64
2021/12/02 04:28:10;;;;;;;5.15;4.60;;;;;;;9.86;47.31;98307.40;1778622;80;21100;-64
2021/12/02 04:30:37;;;;;;;5.42;4.78;;;;;;;9.86;47.31;98303.42;1765142;80;21049;-63
2021/12/02 04:33:03;;;;;;;6.03;4.97;;;;;;;9.88;47.31;98312.51;1777596;80;21846;-64
2021/12/02 04:35:30;;;;;;;5.67;4.55;;;;;;;9.87;47.31;98289.16;1780170;80;21002;-63
2021/12/02 04:37:57;;;;;;;5.15;4.65;;;;;;;9.87;47.31;98294.45;1773642;80;21569;-63
2021/12/02 04:40:24;;;;;;;5.40;4.47;;;;;;;9.87;47.27;98265.28;1774201;80;21081;-64
2021/12/02 04:42:51;;;;;;;5.12;4.47;;;;;;;9.87;47.28;98277.22;1782858;80;21021;-64
2021/12/02 04:45:17;;;;;;;5.37;4.87;;;;;;;9.88;47.29;98280.16;1767926;80;21130;-62
2021/12/02 04:47:44;;;;;;;5.80;5.20;;;;;;;9.88;47.27;98275.38;1762871;80;21017;-64
2021/12/02 04:50:10;;;;;;;5.50;4.80;;;;;;;9.87;47.27;98282.52;1731501;81;21509;-64
2021/12/02 04:52:36;;;;;;;5.80;4.25;;;;;;;9.88;47.25;98293.42;1779017;80;21056;-64
2021/12/02 04:55:04;;;;;;;6.17;5.15;;;;;;;9.88;47.24;98278.84;1765476;80;21065;-62
2021/12/02 04:57:32;;;;;;;4.90;4.40;;;;;;;9.88;47.25;98272.20;1748986;81;21972;-63
2021/12/02 04:59:58;;;;;;;6.40;4.92;;;;;;;9.89;47.23;98275.18;1738209;81;21022;-64
2021/12/02 05:02:25;;;;;;;4.80;4.28;;;;;;;9.88;47.23;98272.20;1754423;81;21091;-64
2021/12/02 05:04:51;;;;;;;5.72;5.10;;;;;;;9.89;47.23;98277.83;1752468;81;21780;-64
2021/12/02 05:07:17;;;;;;;5.28;4.60;;;;;;;9.87;47.22;98260.46;1747671;81;21087;-64
2021/12/02 05:09:45;;;;;;;6.70;4.83;;;;;;;9.90;47.22;98258.23;1750141;81;21048;-63
2021/12/02 05:12:11;;;;;;;5.00;4.50;;;;;;;9.89;47.19;98252.63;1749589;81;21687;-64
2021/12/02 05:14:37;;;;;;;5.75;4.55;;;;;;;9.90;47.21;98260.88;1752135;80;21088;-64
2021/12/02 05:17:05;;;;;;;5.10;4.55;;;;;;;9.90;47.19;98257.42;1751730;81;21053;-64
2021/12/02 05:19:32;;;;;;;5.35;4.85;;;;;;;9.91;47.20;98273.14;1754004;81;20985;-63
2021/12/02 05:21:58;;;;;;;5.30;4.70;;;;;;;9.90;47.18;98259.56;1737294;81;21857;-64
2021/12/02 05:24:25;;;;;;;5.33;4.83;;;;;;;9.90;47.21;98255.58;1747826;81;21017;-63
2021/12/02 05:26:51;;;;;;;5.60;4.75;;;;;;;9.91;47.20;98261.20;1783256;80;21560;-64
2021/12/02 05:29:18;;;;;;;5.83;5.20;;;;;;;9.91;47.21;98258.55;1737409;81;21122;-64
2021/12/02 05:31:44;;;;;;;5.97;5.12;;;;;;;9.90;47.18;98255.58;1740408;81;21001;-64
2021/12/02 05:34:11;;;;;;;5.47;4.78;;;;;;;9.92;47.17;98276.09;1754401;81;21935;-63
2021/12/02 05:36:38;;;;;;;5.67;5.08;;;;;;;9.92;47.16;98254.87;1732853;81;21033;-64
2021/12/02 05:39:05;;;;;;;6.67;5.42;;;;;;;9.92;47.17;98257.52;1755593;81;21009;-64
2021/12/02 05:41:31;;;;;;;5.00;4.50;;;;;;;9.93;47.16;98269.78;1728833;81;21051;-64
2021/12/02 05:43:59;;;;;;;5.40;4.83;;;;;;;9.93;47.15;98257.84;1740212;81;21481;-64
2021/12/02 05:46:27;;;;;;;5.70;4.75;;;;;;;9.94;47.15;98265.28;1754746;80;21112;-64
2021/12/02 05:48:53;;;;;;;5.85;5.25;;;;;;;9.94;47.15;98259.98;1760825;80;21561;-64
2021/12/02 05:51:20;;;;;;;5.75;4.80;;;;;;;9.95;47.15;98266.94;1762297;80;21057;-63
2021/12/02 05:53:46;;;;;;;5.22;4.72;;;;;;;9.95;47.15;98282.34;1778243;80;20999;-64
2021/12/02 05:56:12;;;;;;;7.30;5.30;;;;;;;9.94;47.14;98270.07;1770316;80;21036;-64
2021/12/02 05:58:39;;;;;;;5.05;4.55;;;;;;;9.95;47.14;98280.20;1775717;80;21483;-64
2021/12/02 06:01:05;;;;;;;6.12;5.53;;;;;;;9.94;47.14;98270.07;1780913;79;20988;-63
2021/12/02 06:03:35;;;;;;;5.10;4.60;;;;;;;9.94;47.14;98262.11;1784373;80;21013;-64
2021/12/02 06:06:00;;;;;;;5.08;4.58;;;;;;;9.94;47.13;98276.70;1775731;79;21708;-64
2021/12/02 06:08:26;;;;;;;6.10;5.25;;;;;;;9.95;47.13;98267.74;1784720;80;21132;-65
2021/12/02 06:10:53;;;;;;;5.72;4.60;;;;;;;9.96;47.14;98269.36;1784915;80;21973;-66
2021/12/02 06:13:19;;;;;;;6.20;5.45;;;;;;;9.97;47.16;98263.57;1785704;80;21033;-64
2021/12/02 06:15:45;;;;;;;5.50;4.87;;;;;;;9.97;47.14;98272.34;1773867;79;21040;-63
2021/12/02 06:18:12;;;;;;;5.85;5.00;;;;;;;9.96;47.12;98258.75;1771253;80;21045;-64
2021/12/02 06:20:38;;;;;;;5.60;5.00;;;;;;;9.97;47.12;98249.79;1777128;80;21103;-64
2021/12/02 06:23:05;;;;;;;5.80;5.05;;;;;;;9.98;47.11;98250.59;1781473;80;22016;-65
2021/12/02 06:27:58;;;;;;;5.67;5.08;;;;;;;9.98;47.15;98259.37;1791300;79;21068;-64
2021/12/02 06:30:25;;;;;;;5.95;5.35;;;;;;;9.99;47.15;98259.69;1783838;79;21174;-65
2021/12/02 06:32:52;;;;;;;5.37;4.87;;;;;;;10.00;47.14;98252.02;1790065;80;21007;-63
2021/12/02 06:35:19;;;;;;;5.87;5.12;;;;;;;9.99;47.13;98274.28;1790379;80;22714;-63
2021/12/02 06:37:46;;;;;;;5.55;4.95;;;;;;;10.00;47.12;98259.98;1792067;80;21045;-63
2021/12/02 06:40:12;;;;;;;5.25;4.75;;;;;;;10.01;47.14;98243.06;1787490;80;21365;-63
2021/12/02 06:42:41;;;;;;;5.60;5.03;;;;;;;10.01;47.14;98251.02;1781280;80;21081;-64
2021/12/02 06:45:09;;;;;;;5.47;4.72;;;;;;;10.02;47.15;98263.28;1780838;79;21094;-63
2021/12/02 06:47:41;;;;;;;5.60;5.00;;;;;;;10.03;47.16;98253.48;1756290;80;21118;-64
2021/12/02 06:50:08;;;;;;;6.08;5.47;;;;;;;10.02;47.14;98253.99;1771151;80;21061;-65
2021/12/02 06:52:36;;;;;;;6.70;5.00;;;;;;;10.04;47.16;98279.81;1781520;80;21026;-64
2021/12/02 06:55:03;;;;;;;6.35;5.10;;;;;;;10.04;47.15;98277.16;1782821;80;21711;-64
2021/12/02 06:57:30;;;;;;;6.00;5.30;;;;;;;10.04;47.13;98257.27;1780513;79;21005;-64
2021/12/02 07:00:01;;;;;;;5.67;5.10;;;;;;;10.06;47.14;98254.39;1777182;79;21558;-64
2021/12/02 07:02:26;;;;;;;7.30;5.37;;;;;;;10.08;47.13;98268.78;1770667;79;21042;-64
2021/12/02 07:04:53;;;;;;;6.47;5.47;;;;;;;10.09;47.14;98253.19;1774807;79;21103;-64
2021/12/02 07:07:20;;;;;;;5.95;5.35;;;;;;;10.10;47.12;98246.84;1787709;80;20983;-65
2021/12/02 07:09:46;;;;;;;6.55;5.55;;;;;;;10.11;47.11;98248.49;1780480;79;21116;-63
2021/12/02 07:12:12;;;;;;;6.00;5.05;;;;;;;10.11;47.11;98259.92;1788117;80;21014;-64
2021/12/02 07:14:45;;;;;;;6.28;5.50;;;;;;;10.13;47.12;98253.90;1782497;79;21073;-64
2021/12/02 07:17:09;;;;;;;6.30;5.22;;;;;;;10.14;47.10;98249.40;1783181;79;21069;-64
2021/12/02 07:19:39;;;;;;;5.97;5.33;;;;;;;10.16;47.09;98247.36;1770373;80;21053;-65
2021/12/02 07:22:04;;;;;;;7.53;5.30;;;;;;;10.17;47.08;98242.38;1775933;80;20998;-66
2021/12/02 07:24:30;;;;;;;5.92;5.33;;;;;;;10.18;47.08;98246.67;1767624;80;23292;-64
2021/12/02 07:26:57;;;;;;;5.90;5.08;;;;;;;10.20;47.09;98256.58;1771935;80;21053;-67
2021/12/02 07:29:23;;;;;;;6.28;5.45;;;;;;;10.21;47.08;98252.89;1765742;80;21483;-65
2021/12/02 07:31:50;;;;;;;7.00;5.58;;;;;;;10.21;47.05;98244.92;1778757;80;21006;-66
2021/12/02 07:34:18;;;;;;;7.30;5.50;;;;;;;10.24;47.04;98244.53;1779358;80;21049;-65
2021/12/02 07:36:44;;;;;;;6.28;5.03;;;;;;;10.25;47.06;98252.79;1779404;80;21147;-66
2021/12/02 07:39:12;;;;;;;5.83;5.10;;;;;;;10.26;47.05;98261.08;1772480;80;21081;-66
2021/12/02 07:41:39;;;;;;;7.10;5.60;;;;;;;10.27;47.04;98262.69;1776311;80;21032;-65
2021/12/02 07:44:06;;;;;;;5.95;5.33;;;;;;;10.29;47.03;98268.61;1769833;80;21025;-64
2021/12/02 07:46:33;;;;;;;6.58;5.80;;;;;;;10.30;47.04;98257.02;1759779;80;21059;-64
2021/12/02 07:48:59;;;;;;;7.00;5.37;;;;;;;10.31;47.02;98258.64;1765196;79;21111;-64
2021/12/02 07:51:30;;;;;;;6.50;5.70;;;;;;;10.31;47.02;98255.98;1766674;80;21065;-66
2021/12/02 07:53:58;;;;;;;6.00;5.40;;;;;;;10.33;47.02;98263.23;1768249;80;21029;-65
2021/12/02 07:56:25;;;;;;;7.12;5.67;;;;;;;10.34;47.00;98250.28;1773073;80;21041;-64
2021/12/02 07:58:52;;;;;;;5.95;5.35;;;;;;;10.34;47.00;98259.58;1762552;79;21498;-63
2021/12/02 08:02:18;;;;;;;6.60;5.72;;;;;;;10.39;47.00;98261.13;1853782;76;27953;-65
2021/12/02 08:04:45;;;;;;;6.58;5.60;;;;;;;10.36;47.00;98270.80;1826105;78;21545;-65
2021/12/02 08:07:11;;;;;;;7.67;5.97;;;;;;;10.38;47.00;98274.07;1815178;77;21130;-64
2021/12/02 08:09:38;;;;;;;6.17;5.08;;;;;;;10.39;46.99;98273.55;1811116;78;21005;-65
2021/12/02 08:12:05;;;;;;;7.20;6.00;;;;;;;10.41;46.98;98283.45;1802316;78;20998;-65
2021/12/02 08:14:31;;;;;;;6.42;5.72;;;;;;;10.42;46.98;98264.68;1817548;77;20933;-64
2021/12/02 08:16:58;;;;;;;8.18;5.72;;;;;;;10.43;47.00;98286.76;1811431;77;21581;-64
2021/12/02 08:19:24;;;;;;;7.12;5.40;;;;;;;10.45;46.99;98281.22;1813153;78;21767;-64
2021/12/02 08:21:51;;;;;;;7.15;5.67;;;;;;;10.46;46.95;98290.84;1823840;77;20997;-65
2021/12/02 08:24:21;;;;;;;6.50;5.47;;;;;;;10.48;46.94;98270.20;1820533;78;21040;-65
2021/12/02 08:26:46;;;;;;;7.00;5.95;;;;;;;10.50;46.96;98264.19;1751954;80;21033;-64
2021/12/02 08:29:12;;;;;;;6.47;5.22;;;;;;;10.51;46.95;98279.11;1752060;80;21099;-65
2021/12/02 08:31:39;;;;;;;6.75;5.47;;;;;;;10.43;46.93;98253.05;1755139;80;21092;-64
2021/12/02 08:34:05;;;;;;;6.53;5.62;;;;;;;10.54;46.94;98269.39;1778549;79;21097;-64
2021/12/02 08:36:42;;;;;;;6.85;5.67;;;;;;;10.55;46.92;98261.22;1768436;80;21108;-65
2021/12/02 08:39:05;;;;;;;6.87;5.83;;;;;;;10.58;46.90;98257.33;1771879;80;21077;-65
2021/12/02 08:41:29;;;;;;;6.67;5.92;;;;;;;10.59;46.90;98255.00;1767135;80;21050;-66
2021/12/02 08:43:56;;;;;;;6.65;5.70;;;;;;;10.61;46.89;98260.40;1787245;79;21122;-64
2021/12/02 08:46:24;;;;;;;6.62;5.58;;;;;;;10.62;46.90;98265.20;1775646;80;21066;-66
2021/12/02 08:48:52;;;;;;;6.97;5.17;;;;;;;10.65;47.07;98275.94;1755291;80;21057;-64
2021/12/02 08:51:18;;;;;;;6.00;5.40;;;;;;;10.66;47.10;98274.38;1758684;78;21026;-64
2021/12/02 08:53:45;;;;;;;6.92;5.60;;;;;;;10.68;47.15;98277.68;1767540;79;21103;-65
2021/12/02 08:56:12;;;;;;;6.75;5.45;;;;;;;10.70;47.17;98259.70;1757198;80;21107;-65
2021/12/02 08:58:38;;;;;;;7.00;6.30;;;;;;;10.71;47.18;98259.18;1769376;80;22138;-64
2021/12/02 09:01:05;;;;;;;6.40;5.50;;;;;;;10.72;47.14;98253.67;1771013;80;21118;-64
2021/12/02 09:03:33;;;;;;;6.60;5.90;;;;;;;10.73;47.16;98249.97;1755868;81;21535;-65
2021/12/02 09:06:00;;;;;;;5.67;5.12;;;;;;;10.74;47.15;98252.11;1766579;80;21096;-66
2021/12/02 09:08:26;;;;;;;8.80;5.75;;;;;;;10.75;47.10;98245.79;1770682;80;21941;-64
2021/12/02 09:10:53;;;;;;;6.03;5.42;;;;;;;10.76;47.10;98245.59;1757755;81;21045;-64
2021/12/02 09:13:19;;;;;;;7.00;5.85;;;;;;;10.77;47.12;98241.09;1770603;80;21038;-66
2021/12/02 09:15:46;;;;;;;6.53;5.50;;;;;;;10.78;47.09;98241.41;1771529;81;21530;-64
2021/12/02 09:18:13;;;;;;;5.62;5.03;;;;;;;10.78;47.07;98240.89;1753093;79;21050;-63
2021/12/02 09:20:39;;;;;;;6.53;5.58;;;;;;;10.79;47.07;98243.02;1762113;80;21529;-64
2021/12/02 09:23:05;;;;;;;6.08;5.30;;;;;;;10.81;47.04;98234.34;1756175;81;21284;-65
2021/12/02 09:25:32;;;;;;;7.47;6.10;;;;;;;10.81;47.04;98231.68;1746988;80;21010;-65
2021/12/02 09:27:59;;;;;;;5.95;5.35;;;;;;;10.82;47.04;98232.81;1757012;80;21050;-67
2021/12/02 09:30:26;;;;;;;6.55;5.85;;;;;;;10.83;47.04;98241.59;1758129;81;21073;-64
2021/12/02 09:32:53;;;;;;;6.75;5.75;;;;;;;10.84;47.03;98231.28;1772899;80;21121;-63
2021/12/02 09:35:20;;;;;;;6.40;5.60;;;;;;;10.83;47.03;98224.31;1759701;80;21560;-64
2021/12/02 09:37:46;;;;;;;7.75;5.75;;;;;;;10.86;47.01;98242.52;1755494;80;21104;-64
2021/12/02 09:40:14;;;;;;;6.55;5.72;;;;;;;10.86;47.01;98235.88;1748343;80;21499;-65
2021/12/02 09:42:41;;;;;;;9.15;6.28;;;;;;;10.88;47.01;98237.81;1743393;80;21068;-65
2021/12/02 09:45:07;;;;;;;6.42;5.55;;;;;;;10.89;46.99;98226.14;1753163;80;21089;-64
2021/12/02 09:47:38;;;;;;;6.90;5.62;;;;;;;10.90;46.99;98233.10;1797963;77;21006;-65
2021/12/02 09:50:11;;;;;;;7.00;5.65;;;;;;;10.90;46.99;98233.63;1813650;77;20970;-65
2021/12/02 09:52:40;;;;;;;8.65;6.30;;;;;;;10.91;46.98;98224.09;1802211;77;21499;-65
2021/12/02 09:55:25;;;;;;;8.85;6.10;;;;;;;10.92;46.98;98216.44;1813065;78;21037;-64
2021/12/02 09:57:52;;;;;;;6.62;5.35;;;;;;;10.93;46.98;98212.77;1804090;78;21255;-64
2021/12/02 10:00:23;;;;;;;7.97;5.50;;;;;;;10.94;46.98;98210.92;1795583;78;21011;-64
2021/12/02 10:02:58;;;;;;;6.90;5.45;;;;;;;10.94;47.00;98203.77;1747748;80;21549;-65
2021/12/02 10:05:38;;;;;;;6.78;5.37;;;;;;;10.96;47.00;98214.19;1812853;77;21085;-68
2021/12/02 10:08:05;;;;;;;7.87;5.42;;;;;;;10.96;47.02;98208.88;1793345;78;20996;-66
2021/12/02 10:10:49;;;;;;;6.42;5.30;;;;;;;10.96;47.01;98222.97;1804606;77;21145;-68
2021/12/02 10:13:19;;;;;;;6.50;5.25;;;;;;;10.97;47.03;98219.80;1806839;77;20995;-66
2021/12/02 10:15:41;;;;;;;7.00;5.40;;;;;;;10.98;47.01;98208.96;1812059;77;21018;-66
2021/12/02 10:18:12;;;;;;;5.83;5.17;;;;;;;10.98;47.01;98214.80;1785608;77;20973;-69
2021/12/02 10:20:50;;;;;;;8.35;6.30;;;;;;;10.99;47.03;98203.13;1775650;80;21116;-67
2021/12/02 10:23:30;;;;;;;7.65;5.47;;;;;;;11.01;47.04;98205.09;1770716;80;21129;-67
2021/12/02 10:26:03;;;;;;;6.37;5.78;;;;;;;11.01;47.04;98201.91;1753667;80;21045;-65
2021/12/02 10:28:39;;;;;;;6.47;5.25;;;;;;;11.04;47.04;98193.22;1755295;81;20975;-66
2021/12/02 10:31:05;;;;;;;8.40;5.90;;;;;;;11.05;47.05;98199.66;1755056;80;21033;-65
2021/12/02 10:33:39;;;;;;;6.97;5.95;;;;;;;11.06;47.05;98197.30;1747885;81;22232;-65
2021/12/02 10:36:08;;;;;;;;;;;;;;;11.08;47.04;98196.56;1738334;81;21119;-65
2021/12/02 10:38:39;;;;;;;8.08;5.15;;;;;;;11.11;47.04;98208.64;1774717;79;20195;-65
2021/12/02 10:41:21;;;;;;;6.60;5.62;;;;;;;11.10;47.08;98199.83;1770171;79;21103;-65
2021/12/02 10:44:12;;;;;;;8.00;5.42;;;;;;;11.12;47.05;98199.63;1734171;81;21102;-67
2021/12/02 10:47:03;;;;;;;7.55;6.20;;;;;;;11.15;47.00;98197.38;1748916;80;21060;-66
2021/12/02 10:49:38;;;;;;;7.25;5.87;;;;;;;11.18;46.99;98199.63;1739445;81;21133;-66
2021/12/02 10:52:06;;;;;;;8.25;6.10;;;;;;;11.18;46.99;98203.61;1737999;81;21498;-66
2021/12/02 10:54:36;;;;;;;7.37;6.40;;;;;;;11.23;46.98;98206.16;1756112;80;21060;-67
2021/12/02 10:57:19;;;;;;;7.47;4.97;;;;;;;11.26;46.95;98193.75;1726975;82;21037;-65
2021/12/02 10:59:52;;;;;;;6.72;5.92;;;;;;;11.27;46.95;98196.20;1796343;78;21036;-69
2021/12/02 11:02:29;;;;;;;7.53;5.87;;;;;;;11.29;46.94;98172.88;1793584;78;23298;-66
2021/12/02 11:05:01;;;;;;;7.42;5.92;;;;;;;11.30;46.92;98177.67;1798039;78;21297;-66
2021/12/02 11:07:34;;;;;;;6.22;5.10;;;;;;;11.32;46.89;98187.59;1807468;77;21056;-67
2021/12/02 11:10:11;;;;;;;7.30;5.87;;;;;;;11.33;46.90;98188.71;1794852;78;21119;-67
2021/12/02 11:12:41;;;;;;;6.58;5.83;;;;;;;11.35;46.91;98179.20;1807455;77;21126;-66
2021/12/02 11:15:21;;;;;;;6.80;5.50;;;;;;;11.36;46.89;98170.22;1820070;77;21130;-65
2021/12/02 11:17:59;;;;;;;7.65;5.90;;;;;;;11.38;46.88;98177.46;1800876;77;21018;-67
2021/12/02 11:20:36;;;;;;;10.03;6.78;;;;;;;11.38;46.90;98174.80;1802643;77;20998;-65
2021/12/02 11:23:12;;;;;;;7.78;5.83;;;;;;;11.38;46.89;98168.97;1810538;78;21053;-63
2021/12/02 11:26:01;;;;;;;7.25;5.60;;;;;;;11.38;46.89;98174.28;1806408;78;21057;-65
2021/12/02 11:28:32;;;;;;;6.80;6.08;;;;;;;11.40;46.90;98170.09;1785226;78;21139;-63
2021/12/02 11:31:10;;;;;;;8.13;6.08;;;;;;;11.39;46.93;98163.94;1798824;78;21044;-64
2021/12/02 11:33:37;;;;;;;7.12;5.75;;;;;;;11.40;46.93;98146.16;1798997;78;21479;-63
2021/12/02 11:36:05;;;;;;;7.30;5.75;;;;;;;11.41;46.95;98158.41;1797155;78;21073;-64
2021/12/02 11:38:32;;;;;;;7.83;5.83;;;;;;;11.41;46.94;98156.59;1793160;78;21513;-63
2021/12/02 11:41:02;;;;;;;6.53;5.78;;;;;;;11.44;46.94;98157.19;1802414;78;21115;-65
2021/12/02 11:43:33;;;;;;;8.68;5.90;;;;;;;11.47;46.92;98159.41;1806389;77;21014;-63
2021/12/02 11:46:00;;;;;;;6.47;5.37;;;;;;;11.49;46.88;98150.20;1793713;78;21028;-64
2021/12/02 11:48:31;;;;;;;6.87;5.53;;;;;;;11.52;46.88;98159.07;1799206;78;21049;-65
2021/12/02 11:51:00;;;;;;;6.72;5.58;;;;;;;11.55;46.84;98171.95;1810193;77;21025;-64
2021/12/02 11:53:26;;;;;;;8.05;5.75;;;;;;;11.58;46.82;98156.08;1795401;78;21470;-63
2021/12/02 11:56:01;;;;;;;6.67;5.92;;;;;;;11.58;46.81;98151.56;1794822;78;21080;-64
2021/12/02 11:58:28;;;;;;;6.15;5.35;;;;;;;11.62;46.79;98166.59;1812046;78;21068;-64